sensor_id;sensor_type;location;lat;lon;timestamp;pressure;altitude;pressure_sealevel;temperature;humidity
84607;BME280;74838;47.984;7.842;2023-12-14T00:01:12;97556.81;;;8.33;95.40
84607;BME280;74838;47.984;7.842;2023-12-14T00:03:39;97571.09;;;8.27;95.42
84607;BME280;74838;47.984;7.842;2023-12-14T00:06:07;97570.88;;;8.33;94.80
84607;BME280;74838;47.984;7.842;2023-12-14T00:08:36;97568.72;;;8.30;95.58
84607;BME280;74838;47.984;7.842;2023-12-14T00:11:04;97571.84;;;8.23;95.56
84607;BME280;74838;47.984;7.842;2023-12-14T00:13:33;97583.00;;;8.29;95.78
84607;BME280;74838;47.984;7.842;2023-12-14T00:16:00;97576.66;;;8.30;95.50
84607;BME280;74838;47.984;7.842;2023-12-14T00:18:27;97586.47;;;8.30;95.49
84607;BME280;74838;47.984;7.842;2023-12-14T00:20:54;97584.06;;;8.28;95.22
84607;BME280;74838;47.984;7.842;2023-12-14T00:23:21;97590.94;;;8.29;95.21
84607;BME280;74838;47.984;7.842;2023-12-14T00:25:51;97597.06;;;8.30;95.53
84607;BME280;74838;47.984;7.842;2023-12-14T00:28:18;97605.25;;;8.28;95.78
84607;BME280;74838;47.984;7.842;2023-12-14T00:30:44;97614.47;;;8.26;96.08
84607;BME280;74838;47.984;7.842;2023-12-14T00:33:11;97609.44;;;8.25;95.39
84607;BME280;74838;47.984;7.842;2023-12-14T00:35:38;97615.28;;;8.27;96.07
84607;BME280;74838;47.984;7.842;2023-12-14T00:38:04;97615.84;;;8.28;95.24
84607;BME280;74838;47.984;7.842;2023-12-14T00:40:31;97617.69;;;8.28;94.96
84607;BME280;74838;47.984;7.842;2023-12-14T00:43:01;97623.53;;;8.35;95.73
84607;BME280;74838;47.984;7.842;2023-12-14T00:45:28;97624.06;;;8.32;95.96
84607;BME280;74838;47.984;7.842;2023-12-14T00:47:55;97626.94;;;8.30;95.93
84607;BME280;74838;47.984;7.842;2023-12-14T00:50:21;97631.97;;;8.27;96.10
84607;BME280;74838;47.984;7.842;2023-12-14T00:52:48;97640.94;;;8.26;96.18
84607;BME280;74838;47.984;7.842;2023-12-14T00:55:17;97608.50;;;7.99;96.33
84607;BME280;74838;47.984;7.842;2023-12-14T00:57:46;97648.34;;;8.24;96.34
84607;BME280;74838;47.984;7.842;2023-12-14T01:00:15;97647.84;;;8.27;95.82
84607;BME280;74838;47.984;7.842;2023-12-14T01:02:41;97654.75;;;8.28;95.73
84607;BME280;74838;47.984;7.842;2023-12-14T01:05:08;97653.63;;;8.24;96.30
84607;BME280;74838;47.984;7.842;2023-12-14T01:07:35;97629.69;;;8.09;95.62
84607;BME280;74838;47.984;7.842;2023-12-14T01:10:02;97635.31;;;8.13;95.48
84607;BME280;74838;47.984;7.842;2023-12-14T01:12:29;97659.22;;;8.27;95.63
84607;BME280;74838;47.984;7.842;2023-12-14T01:14:58;97662.13;;;8.26;95.63
84607;BME280;74838;47.984;7.842;2023-12-14T01:17:26;97672.16;;;8.24;95.85
84607;BME280;74838;47.984;7.842;2023-12-14T01:19:54;97671.13;;;8.25;95.79
84607;BME280;74838;47.984;7.842;2023-12-14T01:22:20;97675.88;;;8.23;95.79
84607;BME280;74838;47.984;7.842;2023-12-14T01:24:47;97683.22;;;8.16;95.47
84607;BME280;74838;47.984;7.842;2023-12-14T01:27:14;97687.72;;;8.16;96.07
84607;BME280;74838;47.984;7.842;2023-12-14T01:29:40;97695.91;;;8.14;96.45
84607;BME280;74838;47.984;7.842;2023-12-14T01:32:09;97705.44;;;8.15;95.96
84607;BME280;74838;47.984;7.842;2023-12-14T01:34:37;97704.94;;;8.18;96.54
84607;BME280;74838;47.984;7.842;2023-12-14T01:37:04;97710.53;;;8.22;95.49
84607;BME280;74838;47.984;7.842;2023-12-14T01:39:30;97726.66;;;8.20;95.54
84607;BME280;74838;47.984;7.842;2023-12-14T01:41:57;97724.00;;;8.20;95.04
84607;BME280;74838;47.984;7.842;2023-12-14T01:44:26;97721.84;;;8.17;95.60
84607;BME280;74838;47.984;7.842;2023-12-14T01:46:53;97722.41;;;8.19;95.11
84607;BME280;74838;47.984;7.842;2023-12-14T01:49:19;97723.53;;;8.28;94.69
84607;BME280;74838;47.984;7.842;2023-12-14T01:51:47;97711.00;;;8.14;94.20
84607;BME280;74838;47.984;7.842;2023-12-14T01:54:14;97729.06;;;8.22;94.96
84607;BME280;74838;47.984;7.842;2023-12-14T01:56:40;97737.00;;;8.22;94.84
84607;BME280;74838;47.984;7.842;2023-12-14T01:59:09;97746.25;;;8.24;95.34
84607;BME280;74838;47.984;7.842;2023-12-14T02:01:39;97734.00;;;8.13;94.84
84607;BME280;74838;47.984;7.842;2023-12-14T02:04:08;97751.09;;;8.32;94.95
84607;BME280;74838;47.984;7.842;2023-12-14T02:06:35;97758.97;;;8.27;95.09
84607;BME280;74838;47.984;7.842;2023-12-14T02:09:03;97761.09;;;8.25;95.13
84607;BME280;74838;47.984;7.842;2023-12-14T02:11:30;97769.81;;;8.26;95.13
84607;BME280;74838;47.984;7.842;2023-12-14T02:13:57;97770.84;;;8.25;95.08
84607;BME280;74838;47.984;7.842;2023-12-14T02:16:25;97777.97;;;8.19;95.67
84607;BME280;74838;47.984;7.842;2023-12-14T02:18:55;97782.47;;;8.19;96.10
84607;BME280;74838;47.984;7.842;2023-12-14T02:21:22;97774.28;;;8.20;96.39
84607;BME280;74838;47.984;7.842;2023-12-14T02:23:50;97783.50;;;8.18;96.15
84607;BME280;74838;47.984;7.842;2023-12-14T02:26:16;97784.31;;;8.18;95.92
84607;BME280;74838;47.984;7.842;2023-12-14T02:28:43;97768.91;;;8.10;95.55
84607;BME280;74838;47.984;7.842;2023-12-14T02:31:09;97775.56;;;8.18;95.03
84607;BME280;74838;47.984;7.842;2023-12-14T02:33:36;97786.69;;;8.15;95.55
84607;BME280;74838;47.984;7.842;2023-12-14T02:36:03;97785.91;;;8.19;95.67
84607;BME280;74838;47.984;7.842;2023-12-14T02:38:30;97794.63;;;8.15;95.57
84607;BME280;74838;47.984;7.842;2023-12-14T02:40:58;97793.78;;;8.14;96.12
84607;BME280;74838;47.984;7.842;2023-12-14T02:43:26;97791.69;;;8.16;96.32
84607;BME280;74838;47.984;7.842;2023-12-14T02:45:53;97792.22;;;8.13;96.48
84607;BME280;74838;47.984;7.842;2023-12-14T02:48:20;97784.78;;;8.10;96.23
84607;BME280;74838;47.984;7.842;2023-12-14T02:50:47;97798.06;;;8.15;95.88
84607;BME280;74838;47.984;7.842;2023-12-14T02:53:13;97797.50;;;8.13;96.55
84607;BME280;74838;47.984;7.842;2023-12-14T02:55:40;97803.03;;;8.12;96.00
84607;BME280;74838;47.984;7.842;2023-12-14T02:58:08;97807.28;;;8.13;96.21
84607;BME280;74838;47.984;7.842;2023-12-14T03:00:37;97804.91;;;8.11;96.23
84607;BME280;74838;47.984;7.842;2023-12-14T03:03:04;97813.31;;;8.08;96.24
84607;BME280;74838;47.984;7.842;2023-12-14T03:05:30;97815.41;;;8.06;96.46
84607;BME280;74838;47.984;7.842;2023-12-14T03:07:57;97825.16;;;8.06;96.50
84607;BME280;74838;47.984;7.842;2023-12-14T03:10:26;97824.13;;;8.07;96.68
84607;BME280;74838;47.984;7.842;2023-12-14T03:12:52;97825.78;;;8.13;96.35
84607;BME280;74838;47.984;7.842;2023-12-14T03:15:20;97825.47;;;8.09;96.25
84607;BME280;74838;47.984;7.842;2023-12-14T03:17:47;97825.47;;;8.09;95.71
84607;BME280;74838;47.984;7.842;2023-12-14T03:20:16;97824.47;;;8.10;96.26
84607;BME280;74838;47.984;7.842;2023-12-14T03:22:43;97827.91;;;8.11;96.57
84607;BME280;74838;47.984;7.842;2023-12-14T03:25:09;97829.75;;;8.10;96.78
84607;BME280;74838;47.984;7.842;2023-12-14T03:27:36;97829.97;;;8.09;96.35
84607;BME280;74838;47.984;7.842;2023-12-14T03:30:06;97832.84;;;8.07;96.59
84607;BME280;74838;47.984;7.842;2023-12-14T03:32:36;97839.28;;;8.11;96.84
84607;BME280;74838;47.984;7.842;2023-12-14T03:35:06;97842.50;;;8.13;96.41
84607;BME280;74838;47.984;7.842;2023-12-14T03:37:33;97842.97;;;8.10;96.45
84607;BME280;74838;47.984;7.842;2023-12-14T03:40:00;97851.75;;;8.16;96.09
84607;BME280;74838;47.984;7.842;2023-12-14T03:42:27;97851.91;;;8.09;95.84
84607;BME280;74838;47.984;7.842;2023-12-14T03:44:54;97867.72;;;8.26;95.77
84607;BME280;74838;47.984;7.842;2023-12-14T03:47:20;97861.59;;;8.20;94.90
84607;BME280;74838;47.984;7.842;2023-12-14T03:49:50;97867.94;;;8.19;95.82
84607;BME280;74838;47.984;7.842;2023-12-14T03:52:17;97870.31;;;8.21;95.65
84607;BME280;74838;47.984;7.842;2023-12-14T03:54:44;97873.16;;;8.14;95.19
84607;BME280;74838;47.984;7.842;2023-12-14T03:57:10;97881.41;;;8.18;95.89
84607;BME280;74838;47.984;7.842;2023-12-14T03:59:39;97895.47;;;8.18;95.86
84607;BME280;74838;47.984;7.842;2023-12-14T04:02:05;97883.66;;;8.09;96.48
84607;BME280;74838;47.984;7.842;2023-12-14T04:04:32;97905.97;;;8.13;96.37
84607;BME280;74838;47.984;7.842;2023-12-14T04:07:00;97909.19;;;8.15;97.37
84607;BME280;74838;47.984;7.842;2023-12-14T04:09:26;97910.25;;;8.19;97.61
84607;BME280;74838;47.984;7.842;2023-12-14T04:11:53;97916.09;;;8.21;98.80
84607;BME280;74838;47.984;7.842;2023-12-14T04:14:20;97921.41;;;8.21;97.86
84607;BME280;74838;47.984;7.842;2023-12-14T04:16:46;97920.56;;;8.16;97.69
84607;BME280;74838;47.984;7.842;2023-12-14T04:19:13;97925.59;;;8.17;97.66
84607;BME280;74838;47.984;7.842;2023-12-14T04:21:39;97926.16;;;8.19;97.98
84607;BME280;74838;47.984;7.842;2023-12-14T04:24:07;97934.63;;;8.21;98.15
84607;BME280;74838;47.984;7.842;2023-12-14T04:26:34;97936.72;;;8.19;96.85
84607;BME280;74838;47.984;7.842;2023-12-14T04:29:04;97926.34;;;8.13;96.98
84607;BME280;74838;47.984;7.842;2023-12-14T04:31:31;97923.34;;;8.09;96.14
84607;BME280;74838;47.984;7.842;2023-12-14T04:33:58;97932.44;;;8.13;97.01
84607;BME280;74838;47.984;7.842;2023-12-14T04:36:24;97936.13;;;8.12;96.66
84607;BME280;74838;47.984;7.842;2023-12-14T04:38:53;97931.63;;;8.13;98.64
84607;BME280;74838;47.984;7.842;2023-12-14T04:41:21;97940.28;;;8.08;98.19
84607;BME280;74838;47.984;7.842;2023-12-14T04:43:48;97945.13;;;8.11;98.64
84607;BME280;74838;47.984;7.842;2023-12-14T04:46:15;97950.56;;;8.05;97.68
84607;BME280;74838;47.984;7.842;2023-12-14T04:48:41;97953.47;;;8.03;97.02
84607;BME280;74838;47.984;7.842;2023-12-14T04:51:11;97958.34;;;8.11;98.13
84607;BME280;74838;47.984;7.842;2023-12-14T04:53:40;97963.94;;;8.15;97.19
84607;BME280;74838;47.984;7.842;2023-12-14T04:56:10;97976.34;;;8.14;97.19
84607;BME280;74838;47.984;7.842;2023-12-14T04:58:38;97975.03;;;8.12;96.74
84607;BME280;74838;47.984;7.842;2023-12-14T05:01:05;97982.06;;;8.06;97.12
84607;BME280;74838;47.984;7.842;2023-12-14T05:03:32;97978.31;;;8.02;96.46
84607;BME280;74838;47.984;7.842;2023-12-14T05:06:02;97980.41;;;8.00;97.01
84607;BME280;74838;47.984;7.842;2023-12-14T05:08:29;97991.59;;;8.07;96.99
84607;BME280;74838;47.984;7.842;2023-12-14T05:10:55;97989.44;;;8.04;96.87
84607;BME280;74838;47.984;7.842;2023-12-14T05:13:22;98005.38;;;8.09;98.71
84607;BME280;74838;47.984;7.842;2023-12-14T05:15:50;98007.47;;;8.07;98.80
84607;BME280;74838;47.984;7.842;2023-12-14T05:18:17;98020.69;;;8.07;98.45
84607;BME280;74838;47.984;7.842;2023-12-14T05:20:44;98018.03;;;8.07;97.33
84607;BME280;74838;47.984;7.842;2023-12-14T05:23:11;98027.59;;;8.08;98.45
84607;BME280;74838;47.984;7.842;2023-12-14T05:25:38;98023.88;;;8.09;98.69
84607;BME280;74838;47.984;7.842;2023-12-14T05:28:04;98028.97;;;8.11;97.71
84607;BME280;74838;47.984;7.842;2023-12-14T05:30:31;98033.47;;;8.10;98.07
84607;BME280;74838;47.984;7.842;2023-12-14T05:32:59;98038.75;;;8.10;97.56
84607;BME280;74838;47.984;7.842;2023-12-14T05:35:26;98045.22;;;8.19;99.61
84607;BME280;74838;47.984;7.842;2023-12-14T05:37:53;98044.63;;;8.33;100.00
84607;BME280;74838;47.984;7.842;2023-12-14T05:40:20;98058.03;;;8.27;100.00
84607;BME280;74838;47.984;7.842;2023-12-14T05:42:49;98051.50;;;8.13;99.25
84607;BME280;74838;47.984;7.842;2023-12-14T05:45:17;98062.34;;;8.12;98.82
84607;BME280;74838;47.984;7.842;2023-12-14T05:47:45;98063.56;;;8.09;97.40
84607;BME280;74838;47.984;7.842;2023-12-14T05:50:15;98067.28;;;8.08;97.03
84607;BME280;74838;47.984;7.842;2023-12-14T05:52:42;98065.22;;;8.10;97.48
84607;BME280;74838;47.984;7.842;2023-12-14T05:55:09;98074.16;;;8.09;97.86
84607;BME280;74838;47.984;7.842;2023-12-14T05:57:36;98077.88;;;8.08;97.42
84607;BME280;74838;47.984;7.842;2023-12-14T06:00:04;98079.44;;;8.09;98.51
84607;BME280;74838;47.984;7.842;2023-12-14T06:02:31;98088.22;;;8.10;96.63
84607;BME280;74838;47.984;7.842;2023-12-14T06:05:00;98095.84;;;8.06;96.56
84607;BME280;74838;47.984;7.842;2023-12-14T06:07:28;98096.00;;;8.00;95.95
84607;BME280;74838;47.984;7.842;2023-12-14T06:09:54;98097.97;;;8.09;96.49
84607;BME280;74838;47.984;7.842;2023-12-14T06:12:21;98111.81;;;8.11;96.50
84607;BME280;74838;47.984;7.842;2023-12-14T06:14:50;98117.72;;;8.02;95.64
84607;BME280;74838;47.984;7.842;2023-12-14T06:17:17;98126.38;;;7.97;95.99
84607;BME280;74838;47.984;7.842;2023-12-14T06:19:46;98128.06;;;8.03;99.27
84607;BME280;74838;47.984;7.842;2023-12-14T06:22:13;98138.50;;;7.93;97.15
84607;BME280;74838;47.984;7.842;2023-12-14T06:24:43;98137.94;;;7.91;96.51
84607;BME280;74838;47.984;7.842;2023-12-14T06:27:10;98144.81;;;7.92;96.84
84607;BME280;74838;47.984;7.842;2023-12-14T06:29:36;98156.59;;;8.01;98.03
84607;BME280;74838;47.984;7.842;2023-12-14T06:32:04;98147.84;;;8.01;98.49
84607;BME280;74838;47.984;7.842;2023-12-14T06:34:30;98147.06;;;8.00;98.45
84607;BME280;74838;47.984;7.842;2023-12-14T06:36:57;98163.00;;;8.05;97.73
84607;BME280;74838;47.984;7.842;2023-12-14T06:39:25;98168.28;;;8.05;97.51
84607;BME280;74838;47.984;7.842;2023-12-14T06:41:53;98169.41;;;8.09;96.72
84607;BME280;74838;47.984;7.842;2023-12-14T06:44:20;98171.94;;;7.99;96.03
84607;BME280;74838;47.984;7.842;2023-12-14T06:46:46;98176.16;;;8.00;95.89
84607;BME280;74838;47.984;7.842;2023-12-14T06:49:13;98183.53;;;7.98;96.38
84607;BME280;74838;47.984;7.842;2023-12-14T06:51:40;98186.75;;;8.00;97.22
84607;BME280;74838;47.984;7.842;2023-12-14T06:54:06;98180.81;;;7.93;96.65
84607;BME280;74838;47.984;7.842;2023-12-14T06:56:36;98188.28;;;7.96;97.07
84607;BME280;74838;47.984;7.842;2023-12-14T06:59:04;98185.63;;;8.67;97.71
84607;BME280;74838;47.984;7.842;2023-12-14T07:01:30;98197.63;;;8.53;94.43
84607;BME280;74838;47.984;7.842;2023-12-14T07:03:59;98203.13;;;8.30;94.27
84607;BME280;74838;47.984;7.842;2023-12-14T07:06:25;98199.75;;;8.18;94.72
84607;BME280;74838;47.984;7.842;2023-12-14T07:09:01;98211.63;;;8.16;94.87
84607;BME280;74838;47.984;7.842;2023-12-14T07:11:43;98225.09;;;8.14;95.88
84607;BME280;74838;47.984;7.842;2023-12-14T07:14:11;98227.19;;;8.12;95.81
84607;BME280;74838;47.984;7.842;2023-12-14T07:16:40;98236.19;;;8.11;95.91
84607;BME280;74838;47.984;7.842;2023-12-14T07:19:06;98236.63;;;8.08;95.77
84607;BME280;74838;47.984;7.842;2023-12-14T07:21:42;98245.94;;;8.11;95.61
84607;BME280;74838;47.984;7.842;2023-12-14T07:24:09;98250.75;;;8.14;95.62
84607;BME280;74838;47.984;7.842;2023-12-14T07:26:35;98248.78;;;8.09;95.85
84607;BME280;74838;47.984;7.842;2023-12-14T07:29:04;98235.34;;;7.94;95.54
84607;BME280;74838;47.984;7.842;2023-12-14T07:31:34;98257.47;;;8.05;95.62
84607;BME280;74838;47.984;7.842;2023-12-14T07:34:03;98260.91;;;8.05;95.31
84607;BME280;74838;47.984;7.842;2023-12-14T07:36:39;98269.38;;;8.07;95.49
84607;BME280;74838;47.984;7.842;2023-12-14T07:39:06;98272.03;;;8.07;95.48
84607;BME280;74838;47.984;7.842;2023-12-14T07:41:35;98287.91;;;8.07;95.39
84607;BME280;74838;47.984;7.842;2023-12-14T07:44:07;98285.25;;;8.07;95.00
84607;BME280;74838;47.984;7.842;2023-12-14T07:46:38;98287.34;;;8.05;95.35
84607;BME280;74838;47.984;7.842;2023-12-14T07:49:18;98286.88;;;8.08;95.54
84607;BME280;74838;47.984;7.842;2023-12-14T07:51:45;98290.47;;;8.02;95.54
84607;BME280;74838;47.984;7.842;2023-12-14T07:54:14;98301.16;;;8.07;95.34
84607;BME280;74838;47.984;7.842;2023-12-14T07:56:41;98302.19;;;8.06;95.55
84607;BME280;74838;47.984;7.842;2023-12-14T07:59:07;98309.44;;;8.11;96.14
84607;BME280;74838;47.984;7.842;2023-12-14T08:01:35;98316.34;;;8.12;95.09
84607;BME280;74838;47.984;7.842;2023-12-14T08:04:03;98314.03;;;8.15;95.20
84607;BME280;74838;47.984;7.842;2023-12-14T08:06:30;98316.66;;;8.15;94.48
84607;BME280;74838;47.984;7.842;2023-12-14T08:08:57;98330.00;;;8.20;95.36
84607;BME280;74838;47.984;7.842;2023-12-14T08:11:24;98321.16;;;8.31;96.69
84607;BME280;74838;47.984;7.842;2023-12-14T08:13:50;98338.09;;;8.30;94.91
84607;BME280;74838;47.984;7.842;2023-12-14T08:16:17;98342.16;;;8.21;95.27
84607;BME280;74838;47.984;7.842;2023-12-14T08:18:44;98341.22;;;8.27;95.17
84607;BME280;74838;47.984;7.842;2023-12-14T08:21:12;98346.28;;;8.28;94.10
84607;BME280;74838;47.984;7.842;2023-12-14T08:23:39;98344.31;;;8.52;93.89
84607;BME280;74838;47.984;7.842;2023-12-14T08:26:06;98349.09;;;8.55;93.06
84607;BME280;74838;47.984;7.842;2023-12-14T08:28:35;98355.97;;;8.39;92.15
84607;BME280;74838;47.984;7.842;2023-12-14T08:31:02;98361.09;;;8.29;92.38
84607;BME280;74838;47.984;7.842;2023-12-14T08:33:32;98368.81;;;8.31;92.61
84607;BME280;74838;47.984;7.842;2023-12-14T08:36:00;98354.75;;;8.14;93.75
84607;BME280;74838;47.984;7.842;2023-12-14T08:38:28;98385.66;;;8.25;93.30
84607;BME280;74838;47.984;7.842;2023-12-14T08:40:55;98390.31;;;8.18;93.75
84607;BME280;74838;47.984;7.842;2023-12-14T08:43:22;98402.47;;;8.19;93.34
84607;BME280;74838;47.984;7.842;2023-12-14T08:45:48;98410.31;;;8.14;93.23
84607;BME280;74838;47.984;7.842;2023-12-14T08:48:15;98420.75;;;8.21;94.37
84607;BME280;74838;47.984;7.842;2023-12-14T08:50:42;98428.00;;;8.25;92.15
84607;BME280;74838;47.984;7.842;2023-12-14T08:53:08;98429.03;;;9.33;91.52
84607;BME280;74838;47.984;7.842;2023-12-14T08:55:36;98430.03;;;9.11;89.16
84607;BME280;74838;47.984;7.842;2023-12-14T08:58:03;98432.72;;;8.83;90.30
84607;BME280;74838;47.984;7.842;2023-12-14T09:00:29;98440.50;;;8.73;91.26
84607;BME280;74838;47.984;7.842;2023-12-14T09:02:56;98445.06;;;8.62;92.17
84607;BME280;74838;47.984;7.842;2023-12-14T09:05:23;98444.75;;;8.58;92.61
84607;BME280;74838;47.984;7.842;2023-12-14T09:07:51;98451.81;;;8.53;91.63
84607;BME280;74838;47.984;7.842;2023-12-14T09:10:21;98455.50;;;8.52;91.20
84607;BME280;74838;47.984;7.842;2023-12-14T09:12:49;98461.94;;;8.56;92.07
84607;BME280;74838;47.984;7.842;2023-12-14T09:15:16;98461.38;;;8.54;92.13
84607;BME280;74838;47.984;7.842;2023-12-14T09:17:43;98472.34;;;8.46;92.89
84607;BME280;74838;47.984;7.842;2023-12-14T09:20:10;98478.66;;;8.45;93.39
84607;BME280;74838;47.984;7.842;2023-12-14T09:22:37;98474.97;;;8.46;93.49
84607;BME280;74838;47.984;7.842;2023-12-14T09:25:05;98479.72;;;8.44;93.56
84607;BME280;74838;47.984;7.842;2023-12-14T09:27:32;98480.59;;;8.49;93.30
84607;BME280;74838;47.984;7.842;2023-12-14T09:30:00;98474.28;;;8.67;93.66
84607;BME280;74838;47.984;7.842;2023-12-14T09:32:26;98488.78;;;9.41;91.32
84607;BME280;74838;47.984;7.842;2023-12-14T09:34:55;98487.38;;;9.01;90.93
84607;BME280;74838;47.984;7.842;2023-12-14T09:37:22;98492.50;;;8.91;91.57
84607;BME280;74838;47.984;7.842;2023-12-14T09:39:49;98500.59;;;8.84;91.37
84607;BME280;74838;47.984;7.842;2023-12-14T09:42:17;98504.50;;;8.82;91.61
84607;BME280;74838;47.984;7.842;2023-12-14T09:44:45;98508.69;;;8.78;92.61
84607;BME280;74838;47.984;7.842;2023-12-14T09:47:13;98510.53;;;8.77;90.77
84607;BME280;74838;47.984;7.842;2023-12-14T09:49:41;98521.69;;;8.79;91.11
84607;BME280;74838;47.984;7.842;2023-12-14T09:52:12;98525.88;;;8.75;90.79
84607;BME280;74838;47.984;7.842;2023-12-14T09:54:39;98533.09;;;8.80;91.35
84607;BME280;74838;47.984;7.842;2023-12-14T09:57:08;98534.69;;;8.81;92.16
84607;BME280;74838;47.984;7.842;2023-12-14T09:59:37;98537.59;;;8.79;90.84
84607;BME280;74838;47.984;7.842;2023-12-14T10:02:11;98544.50;;;8.80;91.28
84607;BME280;74838;47.984;7.842;2023-12-14T10:04:42;98550.94;;;8.84;92.46
84607;BME280;74838;47.984;7.842;2023-12-14T10:07:09;98548.28;;;8.84;91.19
84607;BME280;74838;47.984;7.842;2023-12-14T10:09:37;98545.41;;;8.86;90.53
84607;BME280;74838;47.984;7.842;2023-12-14T10:12:05;98528.59;;;8.80;92.88
84607;BME280;74838;47.984;7.842;2023-12-14T10:14:32;98557.53;;;8.98;94.05
84607;BME280;74838;47.984;7.842;2023-12-14T10:17:13;98547.16;;;8.97;92.12
84607;BME280;74838;47.984;7.842;2023-12-14T10:19:44;98562.63;;;9.16;92.73
84607;BME280;74838;47.984;7.842;2023-12-14T10:22:14;98552.88;;;9.05;91.88
84607;BME280;74838;47.984;7.842;2023-12-14T10:24:45;98553.63;;;9.17;93.50
84607;BME280;74838;47.984;7.842;2023-12-14T10:27:14;98571.09;;;9.29;94.35
84607;BME280;74838;47.984;7.842;2023-12-14T10:29:41;98576.06;;;9.26;92.84
84607;BME280;74838;47.984;7.842;2023-12-14T10:32:10;98582.88;;;9.22;89.22
84607;BME280;74838;47.984;7.842;2023-12-14T10:34:37;98560.13;;;9.09;90.02
84607;BME280;74838;47.984;7.842;2023-12-14T10:37:06;98589.16;;;9.16;90.26
84607;BME280;74838;47.984;7.842;2023-12-14T10:39:33;98589.06;;;9.11;91.04
84607;BME280;74838;47.984;7.842;2023-12-14T10:42:02;98571.03;;;8.97;91.98
84607;BME280;74838;47.984;7.842;2023-12-14T10:44:30;98583.09;;;9.04;91.93
84607;BME280;74838;47.984;7.842;2023-12-14T10:47:02;98585.16;;;9.02;92.64
84607;BME280;74838;47.984;7.842;2023-12-14T10:49:31;98590.56;;;9.07;92.84
84607;BME280;74838;47.984;7.842;2023-12-14T10:52:00;98592.88;;;9.04;92.52
84607;BME280;74838;47.984;7.842;2023-12-14T10:54:32;98606.63;;;9.01;92.46
84607;BME280;74838;47.984;7.842;2023-12-14T10:57:01;98603.72;;;9.02;92.67
84607;BME280;74838;47.984;7.842;2023-12-14T10:59:30;98613.72;;;9.11;91.62
84607;BME280;74838;47.984;7.842;2023-12-14T11:01:57;98613.94;;;9.10;92.57
84607;BME280;74838;47.984;7.842;2023-12-14T11:04:26;98611.84;;;9.12;91.85
84607;BME280;74838;47.984;7.842;2023-12-14T11:06:53;98615.06;;;9.14;92.54
84607;BME280;74838;47.984;7.842;2023-12-14T11:09:22;98614.16;;;9.08;91.53
84607;BME280;74838;47.984;7.842;2023-12-14T11:11:57;98610.81;;;9.13;91.71
84607;BME280;74838;47.984;7.842;2023-12-14T11:14:26;98600.69;;;9.10;92.43
84607;BME280;74838;47.984;7.842;2023-12-14T11:16:54;98614.59;;;9.17;92.67
84607;BME280;74838;47.984;7.842;2023-12-14T11:19:26;98624.53;;;9.10;93.48
84607;BME280;74838;47.984;7.842;2023-12-14T11:22:10;98630.72;;;9.15;93.23
84607;BME280;74838;47.984;7.842;2023-12-14T11:24:41;98640.72;;;9.25;92.61
84607;BME280;74838;47.984;7.842;2023-12-14T11:27:11;98642.59;;;9.24;92.43
84607;BME280;74838;47.984;7.842;2023-12-14T11:29:38;98647.66;;;9.26;92.27
84607;BME280;74838;47.984;7.842;2023-12-14T11:32:07;98640.41;;;9.21;90.85
84607;BME280;74838;47.984;7.842;2023-12-14T11:34:33;98653.03;;;9.31;90.38
84607;BME280;74838;47.984;7.842;2023-12-14T11:37:03;98649.66;;;9.35;91.44
84607;BME280;74838;47.984;7.842;2023-12-14T11:39:31;98646.31;;;9.40;91.29
84607;BME280;74838;47.984;7.842;2023-12-14T11:42:01;98647.91;;;9.41;90.53
84607;BME280;74838;47.984;7.842;2023-12-14T11:44:30;98659.00;;;9.38;90.95
84607;BME280;74838;47.984;7.842;2023-12-14T11:46:56;98666.03;;;9.32;89.78
84607;BME280;74838;47.984;7.842;2023-12-14T11:49:26;98671.69;;;9.36;90.10
84607;BME280;74838;47.984;7.842;2023-12-14T11:51:52;98671.22;;;9.39;90.50
84607;BME280;74838;47.984;7.842;2023-12-14T11:54:21;98676.88;;;9.31;90.17
84607;BME280;74838;47.984;7.842;2023-12-14T11:56:50;98674.16;;;9.26;90.34
84607;BME280;74838;47.984;7.842;2023-12-14T11:59:18;98674.72;;;9.28;90.84
84607;BME280;74838;47.984;7.842;2023-12-14T12:01:58;98684.78;;;9.26;91.12
84607;BME280;74838;47.984;7.842;2023-12-14T12:04:25;98687.44;;;9.26;90.44
84607;BME280;74838;47.984;7.842;2023-12-14T12:07:00;98694.31;;;9.27;91.23
84607;BME280;74838;47.984;7.842;2023-12-14T12:09:37;98686.38;;;9.27;90.47
84607;BME280;74838;47.984;7.842;2023-12-14T12:12:08;98695.81;;;9.34;90.56
84607;BME280;74838;47.984;7.842;2023-12-14T12:14:35;98687.44;;;9.26;90.86
84607;BME280;74838;47.984;7.842;2023-12-14T12:17:05;98701.44;;;9.38;91.49
84607;BME280;74838;47.984;7.842;2023-12-14T12:19:33;98701.91;;;9.35;91.29
84607;BME280;74838;47.984;7.842;2023-12-14T12:22:00;98700.75;;;9.31;91.70
84607;BME280;74838;47.984;7.842;2023-12-14T12:24:28;98700.84;;;9.36;92.00
84607;BME280;74838;47.984;7.842;2023-12-14T12:26:55;98702.38;;;9.32;91.72
84607;BME280;74838;47.984;7.842;2023-12-14T12:29:22;98705.59;;;9.34;91.96
84607;BME280;74838;47.984;7.842;2023-12-14T12:31:49;98705.13;;;9.37;91.75
84607;BME280;74838;47.984;7.842;2023-12-14T12:34:18;98707.63;;;9.43;91.79
84607;BME280;74838;47.984;7.842;2023-12-14T12:36:45;98711.56;;;9.41;91.48
84607;BME280;74838;47.984;7.842;2023-12-14T12:39:12;98711.28;;;9.53;91.79
84607;BME280;74838;47.984;7.842;2023-12-14T12:41:39;98706.44;;;9.50;90.72
84607;BME280;74838;47.984;7.842;2023-12-14T12:44:08;98698.19;;;9.36;91.16
84607;BME280;74838;47.984;7.842;2023-12-14T12:46:35;98698.84;;;9.43;91.31
84607;BME280;74838;47.984;7.842;2023-12-14T12:49:02;98717.84;;;9.51;91.70
84607;BME280;74838;47.984;7.842;2023-12-14T12:51:31;98715.28;;;9.56;90.56
84607;BME280;74838;47.984;7.842;2023-12-14T12:53:58;98720.50;;;9.51;89.65
84607;BME280;74838;47.984;7.842;2023-12-14T12:56:26;98689.59;;;9.56;95.02
84607;BME280;74838;47.984;7.842;2023-12-14T12:58:55;98713.59;;;10.97;89.88
84607;BME280;74838;47.984;7.842;2023-12-14T13:01:22;98719.53;;;11.04;86.99
84607;BME280;74838;47.984;7.842;2023-12-14T13:03:53;98725.28;;;11.17;85.62
84607;BME280;74838;47.984;7.842;2023-12-14T13:06:20;98724.91;;;11.09;83.80
84607;BME280;74838;47.984;7.842;2023-12-14T13:08:48;98733.31;;;10.47;83.75
84607;BME280;74838;47.984;7.842;2023-12-14T13:11:17;98733.19;;;10.21;86.45
84607;BME280;74838;47.984;7.842;2023-12-14T13:13:43;98736.31;;;10.01;86.84